sensor_id;sensor_type;location;lat;lon;timestamp;pressure;altitude;pressure_sealevel;temperature;humidity
67013;BME280;53926;47.406;19.188;2022-11-04T00:01:04;100230.44;;;9.21;100.00
67013;BME280;53926;47.406;19.188;2022-11-04T00:03:32;100219.84;;;9.22;100.00
67013;BME280;53926;47.406;19.188;2022-11-04T00:06:00;100224.06;;;9.17;100.00
67013;BME280;53926;47.406;19.188;2022-11-04T00:08:29;100216.44;;;9.28;100.00
67013;BME280;53926;47.406;19.188;2022-11-04T00:11:00;100211.66;;;9.32;100.00
67013;BME280;53926;47.406;19.188;2022-11-04T00:13:48;100198.88;;;9.10;100.00
67013;BME280;53926;47.406;19.188;2022-11-04T00:16:35;100199.25;;;9.21;100.00
67013;BME280;53926;47.406;19.188;2022-11-04T00:19:25;100189.47;;;9.09;100.00
67013;BME280;53926;47.406;19.188;2022-11-04T00:21:56;100193.28;;;9.00;100.00
67013;BME280;53926;47.406;19.188;2022-11-04T00:24:41;100198.25;;;9.08;100.00
67013;BME280;53926;47.406;19.188;2022-11-04T00:27:13;100192.87;;;9.17;100.00
67013;BME280;53926;47.406;19.188;2022-11-04T00:29:59;100184.25;;;9.16;100.00
67013;BME280;53926;47.406;19.188;2022-11-04T00:32:37;100176.69;;;9.21;100.00
67013;BME280;53926;47.406;19.188;2022-11-04T00:35:23;100176.88;;;9.20;100.00
67013;BME280;53926;47.406;19.188;2022-11-04T00:37:49;100167.88;;;9.16;100.00
67013;BME280;53926;47.406;19.188;2022-11-04T00:40:21;100156.28;;;9.11;100.00
67013;BME280;53926;47.406;19.188;2022-11-04T00:42:49;100148.13;;;9.01;100.00
67013;BME280;53926;47.406;19.188;2022-11-04T00:45:17;100145.50;;;8.94;100.00
67013;BME280;53926;47.406;19.188;2022-11-04T00:47:44;100136.13;;;9.00;100.00
67013;BME280;53926;47.406;19.188;2022-11-04T00:50:10;100120.16;;;8.90;100.00
67013;BME280;53926;47.406;19.188;2022-11-04T00:52:37;100109.78;;;8.83;100.00
67013;BME280;53926;47.406;19.188;2022-11-04T00:55:05;100105.56;;;8.75;100.00
67013;BME280;53926;47.406;19.188;2022-11-04T00:57:53;100107.38;;;8.82;100.00
67013;BME280;53926;47.406;19.188;2022-11-04T01:00:37;100109.97;;;8.75;100.00
67013;BME280;53926;47.406;19.188;2022-11-04T01:03:04;100117.16;;;8.73;100.00
67013;BME280;53926;47.406;19.188;2022-11-04T01:05:36;100113.16;;;8.64;100.00
67013;BME280;53926;47.406;19.188;2022-11-04T01:08:07;100119.72;;;8.53;100.00
67013;BME280;53926;47.406;19.188;2022-11-04T01:10:35;100116.69;;;8.36;100.00
67013;BME280;53926;47.406;19.188;2022-11-04T01:13:09;100107.28;;;8.28;100.00
67013;BME280;53926;47.406;19.188;2022-11-04T01:15:37;100107.09;;;8.30;100.00
67013;BME280;53926;47.406;19.188;2022-11-04T01:18:04;100112.09;;;8.18;100.00
67013;BME280;53926;47.406;19.188;2022-11-04T01:20:32;100107.69;;;8.25;100.00
67013;BME280;53926;47.406;19.188;2022-11-04T01:22:59;100106.09;;;8.31;100.00
67013;BME280;53926;47.406;19.188;2022-11-04T01:25:30;100107.12;;;8.36;100.00
67013;BME280;53926;47.406;19.188;2022-11-04T01:27:57;100099.34;;;8.43;100.00
67013;BME280;53926;47.406;19.188;2022-11-04T01:30:27;100112.34;;;8.50;100.00
67013;BME280;53926;47.406;19.188;2022-11-04T01:32:54;100114.78;;;8.58;100.00
67013;BME280;53926;47.406;19.188;2022-11-04T01:35:20;100111.16;;;8.72;100.00
67013;BME280;53926;47.406;19.188;2022-11-04T01:37:48;100098.59;;;8.83;100.00
67013;BME280;53926;47.406;19.188;2022-11-04T01:40:36;100095.00;;;8.90;100.00
67013;BME280;53926;47.406;19.188;2022-11-04T01:43:13;100103.34;;;8.99;100.00
67013;BME280;53926;47.406;19.188;2022-11-04T01:45:45;100097.75;;;9.02;100.00
67013;BME280;53926;47.406;19.188;2022-11-04T01:48:19;100082.78;;;9.11;100.00
67013;BME280;53926;47.406;19.188;2022-11-04T01:50:49;100079.78;;;9.01;100.00
67013;BME280;53926;47.406;19.188;2022-11-04T01:53:22;100074.19;;;9.04;100.00
67013;BME280;53926;47.406;19.188;2022-11-04T01:55:55;100059.41;;;9.04;100.00
67013;BME280;53926;47.406;19.188;2022-11-04T01:58:25;100057.81;;;9.03;100.00
67013;BME280;53926;47.406;19.188;2022-11-04T02:00:54;100060.97;;;9.19;100.00
67013;BME280;53926;47.406;19.188;2022-11-04T02:03:31;100060.59;;;9.15;100.00
67013;BME280;53926;47.406;19.188;2022-11-04T02:06:20;100060.38;;;9.17;100.00
67013;BME280;53926;47.406;19.188;2022-11-04T02:08:47;100045.34;;;9.25;100.00
67013;BME280;53926;47.406;19.188;2022-11-04T02:11:15;100037.72;;;9.37;100.00
67013;BME280;53926;47.406;19.188;2022-11-04T02:14:02;100031.53;;;9.38;100.00
67013;BME280;53926;47.406;19.188;2022-11-04T02:16:39;100023.63;;;9.20;100.00
67013;BME280;53926;47.406;19.188;2022-11-04T02:34:21;100013.63;;;9.17;100.00
67013;BME280;53926;47.406;19.188;2022-11-04T02:45:48;99990.47;;;9.08;100.00
67013;BME280;53926;47.406;19.188;2022-11-04T02:51:47;99992.59;;;9.25;100.00
67013;BME280;53926;47.406;19.188;2022-11-04T02:54:39;99987.81;;;9.22;100.00
67013;BME280;53926;47.406;19.188;2022-11-04T02:57:12;99978.44;;;9.21;100.00
67013;BME280;53926;47.406;19.188;2022-11-04T03:00:05;99976.22;;;9.24;100.00
67013;BME280;53926;47.406;19.188;2022-11-04T03:02:43;99971.88;;;9.18;100.00
67013;BME280;53926;47.406;19.188;2022-11-04T03:05:34;99976.66;;;9.15;100.00
67013;BME280;53926;47.406;19.188;2022-11-04T03:08:33;99978.81;;;9.24;100.00
67013;BME280;53926;47.406;19.188;2022-11-04T03:11:10;99970.44;;;9.22;100.00
67013;BME280;53926;47.406;19.188;2022-11-04T03:16:36;99979.41;;;9.26;100.00
67013;BME280;53926;47.406;19.188;2022-11-04T03:19:10;99974.62;;;9.23;100.00
67013;BME280;53926;47.406;19.188;2022-11-04T03:22:11;99978.22;;;9.29;100.00
67013;BME280;53926;47.406;19.188;2022-11-04T03:24:39;99982.19;;;9.31;100.00
67013;BME280;53926;47.406;19.188;2022-11-04T03:27:20;99979.38;;;9.33;100.00
67013;BME280;53926;47.406;19.188;2022-11-04T03:30:08;99976.66;;;9.21;100.00
67013;BME280;53926;47.406;19.188;2022-11-04T03:33:02;99968.66;;;9.23;100.00
67013;BME280;53926;47.406;19.188;2022-11-04T03:35:28;99974.62;;;9.23;100.00
67013;BME280;53926;47.406;19.188;2022-11-04T03:37:55;99968.44;;;9.24;100.00
67013;BME280;53926;47.406;19.188;2022-11-04T03:40:23;99948.91;;;9.15;100.00
67013;BME280;53926;47.406;19.188;2022-11-04T03:42:57;99940.69;;;9.11;100.00
67013;BME280;53926;47.406;19.188;2022-11-04T03:45:25;99924.16;;;9.06;100.00
67013;BME280;53926;47.406;19.188;2022-11-04T03:48:13;99915.38;;;9.00;100.00
67013;BME280;53926;47.406;19.188;2022-11-04T03:50:43;99901.63;;;8.93;100.00
67013;BME280;53926;47.406;19.188;2022-11-04T03:53:17;99896.41;;;8.93;100.00
67013;BME280;53926;47.406;19.188;2022-11-04T04:02:17;99906.25;;;8.84;100.00
67013;BME280;53926;47.406;19.188;2022-11-04T04:05:29;99915.69;;;8.72;100.00
67013;BME280;53926;47.406;19.188;2022-11-04T04:13:52;99909.31;;;8.61;100.00
67013;BME280;53926;47.406;19.188;2022-11-04T04:16:26;99899.72;;;8.68;100.00
67013;BME280;53926;47.406;19.188;2022-11-04T04:19:04;99901.72;;;8.66;100.00
67013;BME280;53926;47.406;19.188;2022-11-04T04:21:55;99908.72;;;8.59;100.00
67013;BME280;53926;47.406;19.188;2022-11-04T04:24:33;99896.34;;;8.61;100.00
67013;BME280;53926;47.406;19.188;2022-11-04T04:27:21;99885.75;;;8.56;100.00
67013;BME280;53926;47.406;19.188;2022-11-04T04:30:14;99883.59;;;8.53;100.00
67013;BME280;53926;47.406;19.188;2022-11-04T04:32:55;99885.59;;;8.51;100.00
67013;BME280;53926;47.406;19.188;2022-11-04T04:35:26;99880.16;;;8.59;100.00
67013;BME280;53926;47.406;19.188;2022-11-04T04:38:23;99880.16;;;8.59;100.00
67013;BME280;53926;47.406;19.188;2022-11-04T04:41:22;99869.78;;;8.59;100.00
67013;BME280;53926;47.406;19.188;2022-11-04T04:44:14;99872.03;;;8.49;100.00
67013;BME280;53926;47.406;19.188;2022-11-04T04:47:02;99868.22;;;8.58;100.00
67013;BME280;53926;47.406;19.188;2022-11-04T04:49:31;99864.25;;;8.49;100.00
67013;BME280;53926;47.406;19.188;2022-11-04T04:52:02;99857.84;;;8.51;100.00
67013;BME280;53926;47.406;19.188;2022-11-04T04:54:31;99861.63;;;8.55;100.00
67013;BME280;53926;47.406;19.188;2022-11-04T04:57:00;99871.63;;;8.52;100.00
67013;BME280;53926;47.406;19.188;2022-11-04T04:59:44;99868.62;;;8.55;100.00
67013;BME280;53926;47.406;19.188;2022-11-04T05:02:12;99857.63;;;8.53;100.00
67013;BME280;53926;47.406;19.188;2022-11-04T05:04:39;99863.63;;;8.40;100.00
67013;BME280;53926;47.406;19.188;2022-11-04T05:07:19;99852.69;;;8.45;100.00
67013;BME280;53926;47.406;19.188;2022-11-04T05:09:46;99851.47;;;8.34;100.00
67013;BME280;53926;47.406;19.188;2022-11-04T05:12:13;99856.44;;;8.42;100.00
67013;BME280;53926;47.406;19.188;2022-11-04T05:14:40;99849.66;;;8.34;100.00
67013;BME280;53926;47.406;19.188;2022-11-04T05:17:08;99863.84;;;8.38;100.00
67013;BME280;53926;47.406;19.188;2022-11-04T05:19:36;99859.88;;;8.29;100.00
67013;BME280;53926;47.406;19.188;2022-11-04T05:22:23;99860.03;;;8.41;100.00
67013;BME280;53926;47.406;19.188;2022-11-04T05:25:09;99860.66;;;8.36;100.00
67013;BME280;53926;47.406;19.188;2022-11-04T05:30:38;99867.66;;;8.29;100.00
67013;BME280;53926;47.406;19.188;2022-11-04T05:36:48;99876.84;;;8.32;100.00
67013;BME280;53926;47.406;19.188;2022-11-04T05:39:35;99876.25;;;8.23;100.00
67013;BME280;53926;47.406;19.188;2022-11-04T05:42:02;99873.25;;;8.26;100.00
67013;BME280;53926;47.406;19.188;2022-11-04T05:44:29;99873.25;;;8.26;100.00
67013;BME280;53926;47.406;19.188;2022-11-04T05:46:56;99872.03;;;8.22;100.00
67013;BME280;53926;47.406;19.188;2022-11-04T05:49:22;99862.06;;;8.26;100.00
67013;BME280;53926;47.406;19.188;2022-11-04T05:51:52;99860.28;;;8.26;100.00
67013;BME280;53926;47.406;19.188;2022-11-04T05:54:19;99857.91;;;8.18;100.00
67013;BME280;53926;47.406;19.188;2022-11-04T05:56:45;99859.09;;;8.29;100.00
67013;BME280;53926;47.406;19.188;2022-11-04T05:59:12;99866.28;;;8.13;100.00
67013;BME280;53926;47.406;19.188;2022-11-04T06:01:40;99869.09;;;8.12;100.00
67013;BME280;53926;47.406;19.188;2022-11-04T06:04:13;99875.84;;;8.13;100.00
67013;BME280;53926;47.406;19.188;2022-11-04T06:06:40;99872.47;;;8.12;100.00
67013;BME280;53926;47.406;19.188;2022-11-04T06:09:08;99871.87;;;8.10;100.00
67013;BME280;53926;47.406;19.188;2022-11-04T06:11:36;99872.44;;;8.19;100.00
67013;BME280;53926;47.406;19.188;2022-11-04T06:14:03;99871.84;;;8.23;100.00
67013;BME280;53926;47.406;19.188;2022-11-04T06:16:39;99887.63;;;8.29;100.00
67013;BME280;53926;47.406;19.188;2022-11-04T06:19:10;99898.59;;;8.44;100.00
67013;BME280;53926;47.406;19.188;2022-11-04T06:21:41;99911.94;;;8.48;100.00
67013;BME280;53926;47.406;19.188;2022-11-04T06:24:09;99908.94;;;8.37;100.00
67013;BME280;53926;47.406;19.188;2022-11-04T06:26:35;99912.34;;;8.45;100.00
67013;BME280;53926;47.406;19.188;2022-11-04T06:29:05;99898.78;;;8.49;100.00
67013;BME280;53926;47.406;19.188;2022-11-04T06:31:31;99896.97;;;8.43;100.00
67013;BME280;53926;47.406;19.188;2022-11-04T06:33:58;99896.97;;;8.50;100.00
67013;BME280;53926;47.406;19.188;2022-11-04T06:36:25;99905.09;;;8.67;100.00
67013;BME280;53926;47.406;19.188;2022-11-04T06:39:12;99891.78;;;8.56;100.00
67013;BME280;53926;47.406;19.188;2022-11-04T06:41:39;99900.56;;;8.49;100.00
67013;BME280;53926;47.406;19.188;2022-11-04T06:44:10;99899.56;;;8.43;100.00
67013;BME280;53926;47.406;19.188;2022-11-04T06:46:40;99897.00;;;8.23;100.00
67013;BME280;53926;47.406;19.188;2022-11-04T06:49:15;99897.16;;;8.48;100.00
67013;BME280;53926;47.406;19.188;2022-11-04T06:51:43;99894.97;;;8.45;100.00
67013;BME280;53926;47.406;19.188;2022-11-04T06:54:11;99894.78;;;8.47;100.00
67013;BME280;53926;47.406;19.188;2022-11-04T06:56:38;99889.94;;;8.64;100.00
67013;BME280;53926;47.406;19.188;2022-11-04T06:59:05;99880.22;;;8.46;100.00
67013;BME280;53926;47.406;19.188;2022-11-04T07:01:35;99876.38;;;8.62;100.00
67013;BME280;53926;47.406;19.188;2022-11-04T07:04:02;99884.13;;;8.75;100.00
67013;BME280;53926;47.406;19.188;2022-11-04T07:06:30;99880.44;;;8.96;100.00
67013;BME280;53926;47.406;19.188;2022-11-04T07:08:59;99884.47;;;8.92;100.00
67013;BME280;53926;47.406;19.188;2022-11-04T07:11:28;99876.72;;;8.79;100.00
67013;BME280;53926;47.406;19.188;2022-11-04T07:13:55;99879.31;;;8.79;100.00
67013;BME280;53926;47.406;19.188;2022-11-04T07:16:39;99882.91;;;8.84;100.00
67013;BME280;53926;47.406;19.188;2022-11-04T07:19:06;99890.56;;;8.66;100.00
67013;BME280;53926;47.406;19.188;2022-11-04T07:21:33;99895.06;;;8.90;100.00
67013;BME280;53926;47.406;19.188;2022-11-04T07:24:00;99889.53;;;8.73;100.00
67013;BME280;53926;47.406;19.188;2022-11-04T07:26:27;99887.69;;;8.87;100.00
67013;BME280;53926;47.406;19.188;2022-11-04T07:29:03;99886.13;;;8.73;100.00
67013;BME280;53926;47.406;19.188;2022-11-04T07:31:32;99895.28;;;8.82;100.00
67013;BME280;53926;47.406;19.188;2022-11-04T07:33:59;99896.50;;;8.80;100.00
67013;BME280;53926;47.406;19.188;2022-11-04T07:36:26;99890.97;;;8.63;100.00
67013;BME280;53926;47.406;19.188;2022-11-04T07:38:55;99884.56;;;8.58;100.00
67013;BME280;53926;47.406;19.188;2022-11-04T07:41:21;99879.41;;;8.38;100.00
67013;BME280;53926;47.406;19.188;2022-11-04T07:43:50;99871.16;;;8.68;100.00
67013;BME280;53926;47.406;19.188;2022-11-04T07:46:18;99883.75;;;8.65;100.00
67013;BME280;53926;47.406;19.188;2022-11-04T07:48:45;99878.63;;;8.38;100.00
67013;BME280;53926;47.406;19.188;2022-11-04T07:51:15;99879.00;;;8.48;100.00
67013;BME280;53926;47.406;19.188;2022-11-04T07:53:43;99875.78;;;8.59;100.00
67013;BME280;53926;47.406;19.188;2022-11-04T07:56:11;99875.91;;;8.85;100.00
67013;BME280;53926;47.406;19.188;2022-11-04T07:58:39;99876.47;;;8.87;100.00
67013;BME280;53926;47.406;19.188;2022-11-04T08:01:13;99874.09;;;8.85;100.00
67013;BME280;53926;47.406;19.188;2022-11-04T08:03:42;99857.50;;;8.86;100.00
67013;BME280;53926;47.406;19.188;2022-11-04T08:06:12;99851.53;;;9.24;100.00
67013;BME280;53926;47.406;19.188;2022-11-04T08:08:39;99849.56;;;8.74;100.00
67013;BME280;53926;47.406;19.188;2022-11-04T08:11:11;99855.38;;;8.76;100.00
67013;BME280;53926;47.406;19.188;2022-11-04T08:14:02;99849.97;;;8.78;100.00
67013;BME280;53926;47.406;19.188;2022-11-04T08:16:30;99847.41;;;8.65;100.00
67013;BME280;53926;47.406;19.188;2022-11-04T08:19:17;99835.84;;;8.67;100.00
67013;BME280;53926;47.406;19.188;2022-11-04T08:21:45;99833.34;;;8.86;100.00
67013;BME280;53926;47.406;19.188;2022-11-04T08:24:37;99836.88;;;8.98;100.00
67013;BME280;53926;47.406;19.188;2022-11-04T08:27:08;99840.31;;;9.24;100.00
67013;BME280;53926;47.406;19.188;2022-11-04T08:29:48;99851.06;;;8.95;100.00
67013;BME280;53926;47.406;19.188;2022-11-04T08:32:17;99846.16;;;8.81;100.00
67013;BME280;53926;47.406;19.188;2022-11-04T08:35:12;99841.47;;;8.96;100.00
67013;BME280;53926;47.406;19.188;2022-11-04T08:38:07;99834.34;;;8.85;100.00
67013;BME280;53926;47.406;19.188;2022-11-04T08:40:37;99832.41;;;8.73;100.00
67013;BME280;53926;47.406;19.188;2022-11-04T08:43:05;99826.31;;;8.93;100.00
67013;BME280;53926;47.406;19.188;2022-11-04T08:45:38;99826.28;;;9.00;100.00
67013;BME280;53926;47.406;19.188;2022-11-04T08:48:08;99821.06;;;9.06;100.00
67013;BME280;53926;47.406;19.188;2022-11-04T08:50:35;99816.13;;;8.98;100.00
67013;BME280;53926;47.406;19.188;2022-11-04T08:53:25;99836.78;;;9.11;100.00
67013;BME280;53926;47.406;19.188;2022-11-04T08:56:20;99835.44;;;9.02;100.00
67013;BME280;53926;47.406;19.188;2022-11-04T08:59:09;99825.37;;;8.81;100.00
67013;BME280;53926;47.406;19.188;2022-11-04T09:01:36;99834.97;;;9.19;100.00
67013;BME280;53926;47.406;19.188;2022-11-04T09:04:06;99823.09;;;8.98;100.00
67013;BME280;53926;47.406;19.188;2022-11-04T09:06:49;99807.84;;;9.08;100.00
67013;BME280;53926;47.406;19.188;2022-11-04T09:09:40;99799.59;;;9.18;100.00
67013;BME280;53926;47.406;19.188;2022-11-04T09:12:09;99799.31;;;9.33;100.00
67013;BME280;53926;47.406;19.188;2022-11-04T09:14:38;99814.78;;;8.89;100.00
67013;BME280;53926;47.406;19.188;2022-11-04T09:17:17;99802.81;;;9.13;100.00
67013;BME280;53926;47.406;19.188;2022-11-04T09:19:49;99792.94;;;8.97;100.00
67013;BME280;53926;47.406;19.188;2022-11-04T09:22:35;99789.13;;;9.31;100.00
67013;BME280;53926;47.406;19.188;2022-11-04T09:25:11;99796.22;;;9.42;100.00
67013;BME280;53926;47.406;19.188;2022-11-04T09:27:46;99792.31;;;9.58;100.00
67013;BME280;53926;47.406;19.188;2022-11-04T09:30:37;99783.44;;;9.41;100.00
67013;BME280;53926;47.406;19.188;2022-11-04T09:33:12;99792.06;;;9.41;100.00
67013;BME280;53926;47.406;19.188;2022-11-04T09:35:45;99797.41;;;9.15;100.00
67013;BME280;53926;47.406;19.188;2022-11-04T09:45:12;99788.69;;;9.34;100.00
67013;BME280;53926;47.406;19.188;2022-11-04T09:48:00;99786.81;;;9.16;100.00
67013;BME280;53926;47.406;19.188;2022-11-04T09:50:53;99785.28;;;9.08;100.00
67013;BME280;53926;47.406;19.188;2022-11-04T09:53:56;99787.22;;;9.20;100.00
67013;BME280;53926;47.406;19.188;2022-11-04T09:59:26;99766.59;;;9.25;100.00
67013;BME280;53926;47.406;19.188;2022-11-04T10:21:54;99734.44;;;9.44;100.00
67013;BME280;53926;47.406;19.188;2022-11-04T10:27:34;99729.22;;;9.70;100.00
67013;BME280;53926;47.406;19.188;2022-11-04T10:30:26;99711.31;;;9.61;100.00
67013;BME280;53926;47.406;19.188;2022-11-04T10:33:38;99715.03;;;9.47;100.00
67013;BME280;53926;47.406;19.188;2022-11-04T10:36:27;99717.81;;;9.89;100.00
67013;BME280;53926;47.406;19.188;2022-11-04T10:39:33;99711.59;;;9.72;100.00
67013;BME280;53926;47.406;19.188;2022-11-04T10:42:32;99719.16;;;9.92;100.00
67013;BME280;53926;47.406;19.188;2022-11-04T10:45:12;99712.41;;;10.58;100.00
67013;BME280;53926;47.406;19.188;2022-11-04T10:51:17;99701.63;;;10.97;100.00
67013;BME280;53926;47.406;19.188;2022-11-04T10:54:04;99684.16;;;11.56;100.00
67013;BME280;53926;47.406;19.188;2022-11-04T10:56:51;99686.13;;;12.59;100.00
67013;BME280;53926;47.406;19.188;2022-11-04T11:02:15;99676.81;;;12.06;100.00
67013;BME280;53926;47.406;19.188;2022-11-04T11:05:21;99675.28;;;11.81;100.00
67013;BME280;53926;47.406;19.188;2022-11-04T11:08:30;99669.75;;;11.66;100.00
67013;BME280;53926;47.406;19.188;2022-11-04T11:11:46;99665.50;;;11.36;100.00
67013;BME280;53926;47.406;19.188;2022-11-04T11:14:44;99656.78;;;11.94;100.00
67013;BME280;53926;47.406;19.188;2022-11-04T11:17:41;99655.69;;;11.78;100.00
67013;BME280;53926;47.406;19.188;2022-11-04T11:20:24;99657.06;;;11.57;100.00
67013;BME280;53926;47.406;19.188;2022-11-04T11:23:41;99665.94;;;11.44;100.00
67013;BME280;53926;47.406;19.188;2022-11-04T11:26:32;99669.22;;;11.16;100.00
67013;BME280;53926;47.406;19.188;2022-11-04T11:29:29;99670.69;;;10.88;100.00
67013;BME280;53926;47.406;19.188;2022-11-04T11:32:33;99660.84;;;10.90;100.00
67013;BME280;53926;47.406;19.188;2022-11-04T11:35:17;99661.75;;;11.08;100.00
67013;BME280;53926;47.406;19.188;2022-11-04T11:41:13;99648.66;;;11.67;100.00
67013;BME280;53926;47.406;19.188;2022-11-04T11:51:23;99643.19;;;11.92;100.00
67013;BME280;53926;47.406;19.188;2022-11-04T11:55:15;99642.56;;;11.61;100.00
67013;BME280;53926;47.406;19.188;2022-11-04T12:30:12;99578.81;;;12.78;100.00
67013;BME280;53926;47.406;19.188;2022-11-04T12:33:38;99562.19;;;13.06;100.00
67013;BME280;53926;47.406;19.188;2022-11-04T12:39:52;99552.06;;;12.53;100.00
67013;BME280;53926;47.406;19.188;2022-11-04T12:56:01;99522.63;;;12.58;100.00
67013;BME280;53926;47.406;19.188;2022-11-04T13:03:12;99529.37;;;12.37;100.00
67013;BME280;53926;47.406;19.188;2022-11-04T13:06:42;99519.00;;;12.42;100.00
67013;BME280;53926;47.406;19.188;2022-11-04T13:23:23;99501.97;;;12.40;100.00
67013;BME280;53926;47.406;19.188;2022-11-04T13:26:13;99494.62;;;12.20;100.00
67013;BME280;53926;47.406;19.188;2022-11-04T13:28:41;99491.72;;;12.33;100.00
67013;BME280;53926;47.406;19.188;2022-11-04T13:34:33;99489.31;;;12.48;100.00
67013;BME280;53926;47.406;19.188;2022-11-04T13:38:03;99490.09;;;12.49;100.00
67013;BME280;53926;47.406;19.188;2022-11-04T13:41:00;99505.41;;;12.23;100.00
67013;BME280;53926;47.406;19.188;2022-11-04T14:54:38;99438.13;;;11.62;100.00
67013;BME280;53926;47.406;19.188;2022-11-04T15:09:55;99424.94;;;11.52;100.00
67013;BME280;53926;47.406;19.188;2022-11-04T15:12:44;99425.41;;;11.49;100.00
67013;BME280;53926;47.406;19.188;2022-11-04T16:47:46;99425.38;;;10.91;100.00
67013;BME280;53926;47.406;19.188;2022-11-04T17:04:51;99415.47;;;11.17;100.00
